sensor_id;sensor_type;location;lat;lon;timestamp;temperature;humidity
56162;DHT22;42045;52.986;6.014;2022-12-18T00:01:41;-3.10;99.90
56162;DHT22;42045;52.986;6.014;2022-12-18T00:04:11;-3.20;99.90
56162;DHT22;42045;52.986;6.014;2022-12-18T00:06:40;-3.20;99.90
56162;DHT22;42045;52.986;6.014;2022-12-18T00:09:05;-3.20;99.90
56162;DHT22;42045;52.986;6.014;2022-12-18T00:11:31;-3.10;99.90
56162;DHT22;42045;52.986;6.014;2022-12-18T00:13:59;-3.10;99.90
56162;DHT22;42045;52.986;6.014;2022-12-18T00:16:26;-3.20;99.90
56162;DHT22;42045;52.986;6.014;2022-12-18T00:18:54;-3.20;99.90
56162;DHT22;42045;52.986;6.014;2022-12-18T00:21:21;-3.20;99.90
56162;DHT22;42045;52.986;6.014;2022-12-18T00:23:47;-3.20;99.90
56162;DHT22;42045;52.986;6.014;2022-12-18T00:26:19;-3.10;99.90
56162;DHT22;42045;52.986;6.014;2022-12-18T00:28:45;-3.20;99.90
56162;DHT22;42045;52.986;6.014;2022-12-18T00:31:13;-3.20;99.90
56162;DHT22;42045;52.986;6.014;2022-12-18T00:33:39;-3.30;99.90
56162;DHT22;42045;52.986;6.014;2022-12-18T00:36:09;-3.30;99.90
56162;DHT22;42045;52.986;6.014;2022-12-18T00:38:36;-3.30;99.90
56162;DHT22;42045;52.986;6.014;2022-12-18T00:41:02;-3.30;99.90
56162;DHT22;42045;52.986;6.014;2022-12-18T00:43:28;-3.40;99.90
56162;DHT22;42045;52.986;6.014;2022-12-18T00:45:54;-3.40;99.90
56162;DHT22;42045;52.986;6.014;2022-12-18T00:48:20;-3.40;99.90
56162;DHT22;42045;52.986;6.014;2022-12-18T00:50:48;-3.40;99.90
56162;DHT22;42045;52.986;6.014;2022-12-18T00:53:13;-3.40;99.90
56162;DHT22;42045;52.986;6.014;2022-12-18T00:55:39;-3.40;99.90
56162;DHT22;42045;52.986;6.014;2022-12-18T00:58:05;-3.40;99.90
56162;DHT22;42045;52.986;6.014;2022-12-18T01:00:31;-3.50;99.90
56162;DHT22;42045;52.986;6.014;2022-12-18T01:02:57;-3.50;99.90
56162;DHT22;42045;52.986;6.014;2022-12-18T01:05:22;-3.50;99.90
56162;DHT22;42045;52.986;6.014;2022-12-18T01:07:48;-3.50;99.90
56162;DHT22;42045;52.986;6.014;2022-12-18T01:10:14;-3.40;99.90
56162;DHT22;42045;52.986;6.014;2022-12-18T01:12:40;-3.50;99.90
56162;DHT22;42045;52.986;6.014;2022-12-18T01:15:06;-3.50;99.90
56162;DHT22;42045;52.986;6.014;2022-12-18T01:17:32;-3.50;99.90
56162;DHT22;42045;52.986;6.014;2022-12-18T01:19:58;-3.60;99.90
56162;DHT22;42045;52.986;6.014;2022-12-18T01:22:24;-3.60;99.90
56162;DHT22;42045;52.986;6.014;2022-12-18T01:24:49;-3.50;99.90
56162;DHT22;42045;52.986;6.014;2022-12-18T01:27:15;-3.70;99.90
56162;DHT22;42045;52.986;6.014;2022-12-18T01:29:41;-3.70;99.90
56162;DHT22;42045;52.986;6.014;2022-12-18T01:32:06;-3.70;99.90
56162;DHT22;42045;52.986;6.014;2022-12-18T01:34:32;-3.80;99.90
56162;DHT22;42045;52.986;6.014;2022-12-18T01:36:58;-3.80;99.90
56162;DHT22;42045;52.986;6.014;2022-12-18T01:39:23;-3.80;99.90
56162;DHT22;42045;52.986;6.014;2022-12-18T01:41:49;-3.80;99.90
56162;DHT22;42045;52.986;6.014;2022-12-18T01:45:00;-3.80;99.90
56162;DHT22;42045;52.986;6.014;2022-12-18T01:50:14;-3.90;99.90
56162;DHT22;42045;52.986;6.014;2022-12-18T01:52:42;-3.90;99.90
56162;DHT22;42045;52.986;6.014;2022-12-18T01:55:10;-3.90;99.90
56162;DHT22;42045;52.986;6.014;2022-12-18T01:57:37;-4.00;99.90
56162;DHT22;42045;52.986;6.014;2022-12-18T02:00:11;-4.00;99.90
56162;DHT22;42045;52.986;6.014;2022-12-18T02:02:36;-3.90;99.90
56162;DHT22;42045;52.986;6.014;2022-12-18T02:05:03;-4.00;99.90
56162;DHT22;42045;52.986;6.014;2022-12-18T02:07:41;-4.00;99.90
56162;DHT22;42045;52.986;6.014;2022-12-18T02:15:40;-3.90;99.90
56162;DHT22;42045;52.986;6.014;2022-12-18T02:18:13;-4.00;99.90
56162;DHT22;42045;52.986;6.014;2022-12-18T02:20:48;-4.00;99.90
56162;DHT22;42045;52.986;6.014;2022-12-18T02:26:37;-4.00;99.90
56162;DHT22;42045;52.986;6.014;2022-12-18T02:29:16;-4.00;99.90
56162;DHT22;42045;52.986;6.014;2022-12-18T02:31:47;-4.00;99.90
56162;DHT22;42045;52.986;6.014;2022-12-18T02:34:15;-4.00;99.90
56162;DHT22;42045;52.986;6.014;2022-12-18T02:36:43;-4.00;99.90
56162;DHT22;42045;52.986;6.014;2022-12-18T02:39:12;-4.10;99.90
56162;DHT22;42045;52.986;6.014;2022-12-18T02:41:39;-4.10;99.90
56162;DHT22;42045;52.986;6.014;2022-12-18T02:44:11;-4.10;99.90
56162;DHT22;42045;52.986;6.014;2022-12-18T02:46:42;-4.20;99.90
56162;DHT22;42045;52.986;6.014;2022-12-18T02:57:05;-4.20;99.90
56162;DHT22;42045;52.986;6.014;2022-12-18T03:00:26;-4.10;99.90
56162;DHT22;42045;52.986;6.014;2022-12-18T03:02:48;-4.20;99.90
56162;DHT22;42045;52.986;6.014;2022-12-18T03:05:39;-4.30;99.90
56162;DHT22;42045;52.986;6.014;2022-12-18T03:10:42;-4.30;99.90
56162;DHT22;42045;52.986;6.014;2022-12-18T03:13:13;-4.40;99.90
56162;DHT22;42045;52.986;6.014;2022-12-18T03:15:50;-4.50;99.90
56162;DHT22;42045;52.986;6.014;2022-12-18T03:18:43;-4.40;99.90
56162;DHT22;42045;52.986;6.014;2022-12-18T03:21:08;-4.50;99.90
56162;DHT22;42045;52.986;6.014;2022-12-18T03:23:42;-4.50;99.90
56162;DHT22;42045;52.986;6.014;2022-12-18T03:26:14;-4.50;99.90
56162;DHT22;42045;52.986;6.014;2022-12-18T03:28:45;-4.50;99.90
56162;DHT22;42045;52.986;6.014;2022-12-18T03:31:14;-4.60;99.90
56162;DHT22;42045;52.986;6.014;2022-12-18T03:33:45;-4.70;99.90
56162;DHT22;42045;52.986;6.014;2022-12-18T03:36:12;-4.80;99.90
56162;DHT22;42045;52.986;6.014;2022-12-18T03:38:38;-4.70;99.90
56162;DHT22;42045;52.986;6.014;2022-12-18T03:41:30;-4.90;99.90
56162;DHT22;42045;52.986;6.014;2022-12-18T03:52:36;-4.90;99.90
56162;DHT22;42045;52.986;6.014;2022-12-18T03:55:03;-4.90;99.90
56162;DHT22;42045;52.986;6.014;2022-12-18T03:57:31;-5.00;99.90
56162;DHT22;42045;52.986;6.014;2022-12-18T04:00:05;-5.00;99.90
56162;DHT22;42045;52.986;6.014;2022-12-18T04:02:32;-5.10;99.90
56162;DHT22;42045;52.986;6.014;2022-12-18T04:05:02;-5.10;99.90
56162;DHT22;42045;52.986;6.014;2022-12-18T04:07:28;-5.10;99.90
56162;DHT22;42045;52.986;6.014;2022-12-18T04:09:56;-5.10;99.90
56162;DHT22;42045;52.986;6.014;2022-12-18T04:12:26;-5.10;99.90
56162;DHT22;42045;52.986;6.014;2022-12-18T04:14:54;-5.10;99.90
56162;DHT22;42045;52.986;6.014;2022-12-18T04:17:20;-5.10;99.90
56162;DHT22;42045;52.986;6.014;2022-12-18T04:19:46;-5.20;99.90
56162;DHT22;42045;52.986;6.014;2022-12-18T04:22:12;-5.20;99.90
56162;DHT22;42045;52.986;6.014;2022-12-18T04:24:37;-5.30;99.90
56162;DHT22;42045;52.986;6.014;2022-12-18T04:27:04;-5.30;99.90
56162;DHT22;42045;52.986;6.014;2022-12-18T04:29:29;-5.30;99.90
56162;DHT22;42045;52.986;6.014;2022-12-18T04:31:55;-5.30;99.90
56162;DHT22;42045;52.986;6.014;2022-12-18T04:34:21;-5.30;99.90
56162;DHT22;42045;52.986;6.014;2022-12-18T04:36:46;-5.40;99.90
56162;DHT22;42045;52.986;6.014;2022-12-18T04:39:12;-5.30;99.90
56162;DHT22;42045;52.986;6.014;2022-12-18T04:41:38;-5.40;99.90
56162;DHT22;42045;52.986;6.014;2022-12-18T04:44:04;-5.30;99.90
56162;DHT22;42045;52.986;6.014;2022-12-18T04:46:30;-5.40;99.90
56162;DHT22;42045;52.986;6.014;2022-12-18T04:48:55;-5.30;99.90
56162;DHT22;42045;52.986;6.014;2022-12-18T04:51:21;-5.30;99.90
56162;DHT22;42045;52.986;6.014;2022-12-18T04:53:47;-5.40;99.90
56162;DHT22;42045;52.986;6.014;2022-12-18T04:56:14;-5.50;99.90
56162;DHT22;42045;52.986;6.014;2022-12-18T04:58:41;-5.50;99.90
56162;DHT22;42045;52.986;6.014;2022-12-18T05:01:09;-5.50;99.90
56162;DHT22;42045;52.986;6.014;2022-12-18T05:03:36;-5.50;99.90
56162;DHT22;42045;52.986;6.014;2022-12-18T05:06:02;-5.50;99.90
56162;DHT22;42045;52.986;6.014;2022-12-18T05:08:28;-5.60;99.90
56162;DHT22;42045;52.986;6.014;2022-12-18T05:11:08;-5.60;99.90
56162;DHT22;42045;52.986;6.014;2022-12-18T05:13:35;-5.60;99.90
56162;DHT22;42045;52.986;6.014;2022-12-18T05:16:01;-5.60;99.90
56162;DHT22;42045;52.986;6.014;2022-12-18T05:18:28;-5.60;99.90
56162;DHT22;42045;52.986;6.014;2022-12-18T05:20:54;-5.60;99.90
56162;DHT22;42045;52.986;6.014;2022-12-18T05:23:21;-5.70;99.90
56162;DHT22;42045;52.986;6.014;2022-12-18T05:25:52;-5.70;99.90
56162;DHT22;42045;52.986;6.014;2022-12-18T05:28:18;-5.70;99.90
56162;DHT22;42045;52.986;6.014;2022-12-18T05:30:50;-5.70;99.90
56162;DHT22;42045;52.986;6.014;2022-12-18T05:33:17;-5.70;99.90
56162;DHT22;42045;52.986;6.014;2022-12-18T05:35:43;-5.70;99.90
56162;DHT22;42045;52.986;6.014;2022-12-18T05:38:09;-5.70;99.90
56162;DHT22;42045;52.986;6.014;2022-12-18T05:40:35;-5.60;99.90
56162;DHT22;42045;52.986;6.014;2022-12-18T05:43:02;-5.70;99.90
56162;DHT22;42045;52.986;6.014;2022-12-18T05:45:27;-5.70;99.90
56162;DHT22;42045;52.986;6.014;2022-12-18T05:47:53;-5.70;99.90
56162;DHT22;42045;52.986;6.014;2022-12-18T05:50:18;-5.70;99.90
56162;DHT22;42045;52.986;6.014;2022-12-18T05:52:44;-5.70;99.90
56162;DHT22;42045;52.986;6.014;2022-12-18T05:55:10;-5.80;99.90
56162;DHT22;42045;52.986;6.014;2022-12-18T05:57:35;-5.80;99.90
56162;DHT22;42045;52.986;6.014;2022-12-18T06:00:02;-5.80;99.90
56162;DHT22;42045;52.986;6.014;2022-12-18T06:02:28;-5.90;99.90
56162;DHT22;42045;52.986;6.014;2022-12-18T06:04:54;-5.90;99.90
56162;DHT22;42045;52.986;6.014;2022-12-18T06:07:19;-5.90;99.90
56162;DHT22;42045;52.986;6.014;2022-12-18T06:09:45;-5.90;99.90
56162;DHT22;42045;52.986;6.014;2022-12-18T06:12:10;-5.90;99.90
56162;DHT22;42045;52.986;6.014;2022-12-18T06:14:36;-5.90;99.90
56162;DHT22;42045;52.986;6.014;2022-12-18T06:17:01;-5.90;99.90
56162;DHT22;42045;52.986;6.014;2022-12-18T06:19:27;-5.90;99.90
56162;DHT22;42045;52.986;6.014;2022-12-18T06:21:53;-5.90;99.90
56162;DHT22;42045;52.986;6.014;2022-12-18T06:24:18;-5.90;99.90
56162;DHT22;42045;52.986;6.014;2022-12-18T06:26:44;-5.80;99.90
56162;DHT22;42045;52.986;6.014;2022-12-18T06:29:09;-5.80;99.90
56162;DHT22;42045;52.986;6.014;2022-12-18T06:31:35;-5.80;99.90
56162;DHT22;42045;52.986;6.014;2022-12-18T06:34:03;-5.80;99.90
56162;DHT22;42045;52.986;6.014;2022-12-18T06:36:29;-5.80;99.90
56162;DHT22;42045;52.986;6.014;2022-12-18T06:38:56;-5.80;99.90
56162;DHT22;42045;52.986;6.014;2022-12-18T06:41:23;-5.90;99.90
56162;DHT22;42045;52.986;6.014;2022-12-18T06:43:48;-5.90;99.90
56162;DHT22;42045;52.986;6.014;2022-12-18T06:46:14;-5.90;99.90
56162;DHT22;42045;52.986;6.014;2022-12-18T06:48:40;-6.00;99.90
56162;DHT22;42045;52.986;6.014;2022-12-18T06:51:06;-6.00;99.90
56162;DHT22;42045;52.986;6.014;2022-12-18T06:53:32;-6.00;99.90
56162;DHT22;42045;52.986;6.014;2022-12-18T06:56:03;-6.00;99.90
56162;DHT22;42045;52.986;6.014;2022-12-18T06:58:29;-6.00;99.90
56162;DHT22;42045;52.986;6.014;2022-12-18T07:01:00;-6.10;99.90
56162;DHT22;42045;52.986;6.014;2022-12-18T07:03:26;-6.10;99.90
56162;DHT22;42045;52.986;6.014;2022-12-18T07:05:51;-6.10;99.90
56162;DHT22;42045;52.986;6.014;2022-12-18T07:08:17;-6.10;99.90
56162;DHT22;42045;52.986;6.014;2022-12-18T07:10:43;-6.10;99.90
56162;DHT22;42045;52.986;6.014;2022-12-18T07:13:09;-6.10;99.90
56162;DHT22;42045;52.986;6.014;2022-12-18T07:15:35;-6.10;99.90
56162;DHT22;42045;52.986;6.014;2022-12-18T07:18:01;-6.10;99.90
56162;DHT22;42045;52.986;6.014;2022-12-18T07:20:26;-6.10;99.90
56162;DHT22;42045;52.986;6.014;2022-12-18T07:22:52;-6.10;99.90
56162;DHT22;42045;52.986;6.014;2022-12-18T07:25:18;-6.10;99.90
56162;DHT22;42045;52.986;6.014;2022-12-18T07:27:43;-6.20;99.90
56162;DHT22;42045;52.986;6.014;2022-12-18T07:30:09;-6.10;99.90
56162;DHT22;42045;52.986;6.014;2022-12-18T07:32:35;-6.10;99.90
56162;DHT22;42045;52.986;6.014;2022-12-18T07:35:01;-6.10;99.90
56162;DHT22;42045;52.986;6.014;2022-12-18T07:37:27;-6.00;99.90
56162;DHT22;42045;52.986;6.014;2022-12-18T07:39:52;-6.00;99.90
56162;DHT22;42045;52.986;6.014;2022-12-18T07:42:18;-6.00;99.90
56162;DHT22;42045;52.986;6.014;2022-12-18T07:44:56;-5.90;99.90
56162;DHT22;42045;52.986;6.014;2022-12-18T07:47:22;-5.90;99.90
56162;DHT22;42045;52.986;6.014;2022-12-18T07:49:47;-5.90;99.90
56162;DHT22;42045;52.986;6.014;2022-12-18T07:52:13;-5.90;99.90
56162;DHT22;42045;52.986;6.014;2022-12-18T07:54:39;-5.90;99.90
56162;DHT22;42045;52.986;6.014;2022-12-18T07:57:06;-5.80;99.90
56162;DHT22;42045;52.986;6.014;2022-12-18T07:59:31;-5.80;99.90
56162;DHT22;42045;52.986;6.014;2022-12-18T08:01:57;-5.70;99.90
56162;DHT22;42045;52.986;6.014;2022-12-18T08:04:24;-5.70;99.90
56162;DHT22;42045;52.986;6.014;2022-12-18T08:06:50;-5.60;99.90
56162;DHT22;42045;52.986;6.014;2022-12-18T08:09:16;-5.60;99.90
56162;DHT22;42045;52.986;6.014;2022-12-18T08:11:41;-5.60;99.90
56162;DHT22;42045;52.986;6.014;2022-12-18T08:14:07;-5.50;99.90
56162;DHT22;42045;52.986;6.014;2022-12-18T08:16:33;-5.50;99.90
56162;DHT22;42045;52.986;6.014;2022-12-18T08:18:59;-5.40;99.90
56162;DHT22;42045;52.986;6.014;2022-12-18T08:21:30;-5.40;99.90
56162;DHT22;42045;52.986;6.014;2022-12-18T08:23:58;-5.30;99.90
56162;DHT22;42045;52.986;6.014;2022-12-18T08:26:26;-5.30;99.90
56162;DHT22;42045;52.986;6.014;2022-12-18T08:28:54;-5.30;99.90
56162;DHT22;42045;52.986;6.014;2022-12-18T08:31:19;-5.20;99.90
56162;DHT22;42045;52.986;6.014;2022-12-18T08:33:45;-5.20;99.90
56162;DHT22;42045;52.986;6.014;2022-12-18T08:36:13;-5.10;99.90
56162;DHT22;42045;52.986;6.014;2022-12-18T08:38:38;-5.00;99.90
56162;DHT22;42045;52.986;6.014;2022-12-18T08:41:10;-5.00;99.90
56162;DHT22;42045;52.986;6.014;2022-12-18T08:43:36;-4.90;99.90
56162;DHT22;42045;52.986;6.014;2022-12-18T08:46:21;-4.90;99.90
56162;DHT22;42045;52.986;6.014;2022-12-18T08:48:50;-4.80;99.90
56162;DHT22;42045;52.986;6.014;2022-12-18T08:51:16;-4.80;99.90
56162;DHT22;42045;52.986;6.014;2022-12-18T08:53:43;-4.70;99.90
56162;DHT22;42045;52.986;6.014;2022-12-18T08:56:10;-4.70;99.90
56162;DHT22;42045;52.986;6.014;2022-12-18T08:58:35;-4.60;99.90
56162;DHT22;42045;52.986;6.014;2022-12-18T09:01:02;-4.50;99.90
56162;DHT22;42045;52.986;6.014;2022-12-18T09:03:28;-4.50;99.90
56162;DHT22;42045;52.986;6.014;2022-12-18T09:05:54;-4.40;99.90
56162;DHT22;42045;52.986;6.014;2022-12-18T09:08:20;-4.40;99.90
56162;DHT22;42045;52.986;6.014;2022-12-18T09:10:47;-4.30;99.90
56162;DHT22;42045;52.986;6.014;2022-12-18T09:13:14;-4.30;99.90
56162;DHT22;42045;52.986;6.014;2022-12-18T09:15:42;-4.10;99.90
56162;DHT22;42045;52.986;6.014;2022-12-18T09:18:09;-4.10;99.90
56162;DHT22;42045;52.986;6.014;2022-12-18T09:20:36;-4.00;99.90
56162;DHT22;42045;52.986;6.014;2022-12-18T09:23:02;-3.90;99.90
56162;DHT22;42045;52.986;6.014;2022-12-18T09:25:29;-3.80;99.90
56162;DHT22;42045;52.986;6.014;2022-12-18T09:27:59;-3.70;99.90
56162;DHT22;42045;52.986;6.014;2022-12-18T09:30:26;-3.60;99.90
56162;DHT22;42045;52.986;6.014;2022-12-18T09:32:51;-3.60;99.90
56162;DHT22;42045;52.986;6.014;2022-12-18T09:35:17;-3.50;99.90
56162;DHT22;42045;52.986;6.014;2022-12-18T09:37:43;-3.40;99.90
56162;DHT22;42045;52.986;6.014;2022-12-18T09:40:20;-3.30;99.90
56162;DHT22;42045;52.986;6.014;2022-12-18T09:42:53;-3.30;99.90
56162;DHT22;42045;52.986;6.014;2022-12-18T09:45:19;-3.20;99.90
56162;DHT22;42045;52.986;6.014;2022-12-18T09:47:47;-3.10;99.90
56162;DHT22;42045;52.986;6.014;2022-12-18T09:50:34;-3.10;99.90
56162;DHT22;42045;52.986;6.014;2022-12-18T09:53:05;-3.10;99.90
56162;DHT22;42045;52.986;6.014;2022-12-18T09:55:37;-3.10;99.90
56162;DHT22;42045;52.986;6.014;2022-12-18T09:58:32;-3.00;99.90
56162;DHT22;42045;52.986;6.014;2022-12-18T10:01:00;-3.00;99.90
56162;DHT22;42045;52.986;6.014;2022-12-18T10:03:25;-3.00;99.90
56162;DHT22;42045;52.986;6.014;2022-12-18T10:06:08;-3.00;99.90
56162;DHT22;42045;52.986;6.014;2022-12-18T10:11:51;-3.10;99.90
56162;DHT22;42045;52.986;6.014;2022-12-18T10:14:36;-3.10;99.90
56162;DHT22;42045;52.986;6.014;2022-12-18T10:17:40;-3.20;99.90
56162;DHT22;42045;52.986;6.014;2022-12-18T10:20:32;-3.20;99.90
56162;DHT22;42045;52.986;6.014;2022-12-18T10:25:55;-3.20;99.90
56162;DHT22;42045;52.986;6.014;2022-12-18T10:28:24;-3.10;99.90
56162;DHT22;42045;52.986;6.014;2022-12-18T10:30:51;-3.00;99.90
56162;DHT22;42045;52.986;6.014;2022-12-18T10:33:22;-2.90;99.90
56162;DHT22;42045;52.986;6.014;2022-12-18T10:35:51;-2.80;99.90
56162;DHT22;42045;52.986;6.014;2022-12-18T10:40:59;-2.80;99.90
56162;DHT22;42045;52.986;6.014;2022-12-18T10:43:29;-2.70;99.90
56162;DHT22;42045;52.986;6.014;2022-12-18T10:46:16;-2.60;99.90
56162;DHT22;42045;52.986;6.014;2022-12-18T10:48:54;-2.60;99.90
56162;DHT22;42045;52.986;6.014;2022-12-18T10:51:34;-2.50;99.90
56162;DHT22;42045;52.986;6.014;2022-12-18T10:54:06;-2.40;99.90
56162;DHT22;42045;52.986;6.014;2022-12-18T10:56:38;-2.40;99.90
56162;DHT22;42045;52.986;6.014;2022-12-18T10:59:06;-2.40;99.90
56162;DHT22;42045;52.986;6.014;2022-12-18T11:01:52;-2.40;99.90
56162;DHT22;42045;52.986;6.014;2022-12-18T11:04:21;-2.30;99.90
56162;DHT22;42045;52.986;6.014;2022-12-18T11:06:54;-2.30;99.90
56162;DHT22;42045;52.986;6.014;2022-12-18T11:09:34;-2.30;99.90
56162;DHT22;42045;52.986;6.014;2022-12-18T11:12:14;-2.20;99.90
56162;DHT22;42045;52.986;6.014;2022-12-18T11:14:54;-2.20;99.90
56162;DHT22;42045;52.986;6.014;2022-12-18T11:17:35;-2.10;99.90
56162;DHT22;42045;52.986;6.014;2022-12-18T11:20:04;-2.10;99.90
56162;DHT22;42045;52.986;6.014;2022-12-18T11:22:34;-2.00;99.90
56162;DHT22;42045;52.986;6.014;2022-12-18T11:25:03;-2.10;99.90
56162;DHT22;42045;52.986;6.014;2022-12-18T11:27:31;-2.00;99.90
56162;DHT22;42045;52.986;6.014;2022-12-18T11:30:23;-2.00;99.90
56162;DHT22;42045;52.986;6.014;2022-12-18T11:35:34;-1.90;99.90
56162;DHT22;42045;52.986;6.014;2022-12-18T11:40:49;-1.90;99.90
56162;DHT22;42045;52.986;6.014;2022-12-18T11:43:38;-1.90;99.90
56162;DHT22;42045;52.986;6.014;2022-12-18T11:46:15;-1.90;99.90
56162;DHT22;42045;52.986;6.014;2022-12-18T11:48:52;-1.80;99.90
56162;DHT22;42045;52.986;6.014;2022-12-18T11:51:33;-1.80;99.90
56162;DHT22;42045;52.986;6.014;2022-12-18T11:54:01;-1.70;99.90
56162;DHT22;42045;52.986;6.014;2022-12-18T11:56:37;-1.70;99.90
56162;DHT22;42045;52.986;6.014;2022-12-18T11:59:33;-1.60;99.90
56162;DHT22;42045;52.986;6.014;2022-12-18T12:10:27;-1.60;99.90
56162;DHT22;42045;52.986;6.014;2022-12-18T12:13:06;-1.60;99.90
56162;DHT22;42045;52.986;6.014;2022-12-18T12:18:31;-1.50;99.90
56162;DHT22;42045;52.986;6.014;2022-12-18T12:23:59;-1.50;99.90
56162;DHT22;42045;52.986;6.014;2022-12-18T12:26:38;-1.40;99.90
56162;DHT22;42045;52.986;6.014;2022-12-18T12:32:04;-1.40;99.90
56162;DHT22;42045;52.986;6.014;2022-12-18T12:39:48;-1.30;99.90
56162;DHT22;42045;52.986;6.014;2022-12-18T12:42:35;-1.30;99.90
56162;DHT22;42045;52.986;6.014;2022-12-18T12:45:29;-1.30;99.90
56162;DHT22;42045;52.986;6.014;2022-12-18T12:48:02;-1.20;99.90
56162;DHT22;42045;52.986;6.014;2022-12-18T12:50:30;-1.20;99.90
56162;DHT22;42045;52.986;6.014;2022-12-18T12:53:01;-1.20;99.90
56162;DHT22;42045;52.986;6.014;2022-12-18T12:55:28;-1.20;99.90
56162;DHT22;42045;52.986;6.014;2022-12-18T13:01:36;-1.20;99.90
56162;DHT22;42045;52.986;6.014;2022-12-18T13:09:15;-1.10;99.90
56162;DHT22;42045;52.986;6.014;2022-12-18T13:11:41;-1.20;99.90
56162;DHT22;42045;52.986;6.014;2022-12-18T13:14:35;-1.20;99.90
56162;DHT22;42045;52.986;6.014;2022-12-18T13:17:37;-1.20;99.90
56162;DHT22;42045;52.986;6.014;2022-12-18T13:20:10;-1.20;99.90
56162;DHT22;42045;52.986;6.014;2022-12-18T13:25:03;-1.20;99.90
56162;DHT22;42045;52.986;6.014;2022-12-18T13:28:00;-1.20;99.90
56162;DHT22;42045;52.986;6.014;2022-12-18T13:38:33;-1.20;99.90
56162;DHT22;42045;52.986;6.014;2022-12-18T13:41:26;-1.20;99.90
56162;DHT22;42045;52.986;6.014;2022-12-18T13:43:55;-1.20;99.90
56162;DHT22;42045;52.986;6.014;2022-12-18T13:46:29;-1.20;99.90
56162;DHT22;42045;52.986;6.014;2022-12-18T13:49:03;-1.20;99.90
56162;DHT22;42045;52.986;6.014;2022-12-18T13:51:33;-1.20;99.90
56162;DHT22;42045;52.986;6.014;2022-12-18T13:54:00;-1.30;99.90
56162;DHT22;42045;52.986;6.014;2022-12-18T13:56:32;-1.20;99.90
56162;DHT22;42045;52.986;6.014;2022-12-18T13:59:32;-1.30;99.90
56162;DHT22;42045;52.986;6.014;2022-12-18T14:02:04;-1.20;99.90
56162;DHT22;42045;52.986;6.014;2022-12-18T14:04:33;-1.20;99.90
56162;DHT22;42045;52.986;6.014;2022-12-18T14:09:43;-1.20;99.90
56162;DHT22;42045;52.986;6.014;2022-12-18T14:12:35;-1.20;99.90
56162;DHT22;42045;52.986;6.014;2022-12-18T14:17:53;-1.20;99.90
56162;DHT22;42045;52.986;6.014;2022-12-18T14:20:20;-1.20;99.90
56162;DHT22;42045;52.986;6.014;2022-12-18T14:22:47;-1.20;99.90
56162;DHT22;42045;52.986;6.014;2022-12-18T14:30:33;-1.20;99.90
56162;DHT22;42045;52.986;6.014;2022-12-18T14:35:27;-1.30;99.90
56162;DHT22;42045;52.986;6.014;2022-12-18T14:37:52;-1.30;99.90
56162;DHT22;42045;52.986;6.014;2022-12-18T14:40:18;-1.30;99.90
56162;DHT22;42045;52.986;6.014;2022-12-18T14:42:44;-1.40;99.90
56162;DHT22;42045;52.986;6.014;2022-12-18T14:45:37;-1.40;99.90
56162;DHT22;42045;52.986;6.014;2022-12-18T14:48:07;-1.40;99.90
56162;DHT22;42045;52.986;6.014;2022-12-18T14:50:33;-1.40;99.90
56162;DHT22;42045;52.986;6.014;2022-12-18T14:52:59;-1.40;99.90
56162;DHT22;42045;52.986;6.014;2022-12-18T14:55:25;-1.40;99.90
56162;DHT22;42045;52.986;6.014;2022-12-18T14:57:53;-1.40;99.90
56162;DHT22;42045;52.986;6.014;2022-12-18T15:00:22;-1.40;99.90
56162;DHT22;42045;52.986;6.014;2022-12-18T15:02:56;-1.50;99.90
56162;DHT22;42045;52.986;6.014;2022-12-18T15:05:30;-1.40;99.90
56162;DHT22;42045;52.986;6.014;2022-12-18T15:08:00;-1.50;99.90
56162;DHT22;42045;52.986;6.014;2022-12-18T15:18:27;-1.50;99.90
56162;DHT22;42045;52.986;6.014;2022-12-18T15:20:57;-1.50;99.90
56162;DHT22;42045;52.986;6.014;2022-12-18T15:23:27;-1.40;99.90
56162;DHT22;42045;52.986;6.014;2022-12-18T15:31:33;-1.40;99.90
56162;DHT22;42045;52.986;6.014;2022-12-18T15:34:12;-1.40;99.90
56162;DHT22;42045;52.986;6.014;2022-12-18T15:36:39;-1.40;99.90
56162;DHT22;42045;52.986;6.014;2022-12-18T15:39:05;-1.40;99.90
56162;DHT22;42045;52.986;6.014;2022-12-18T15:41:35;-1.40;99.90
56162;DHT22;42045;52.986;6.014;2022-12-18T15:44:01;-1.40;99.90
56162;DHT22;42045;52.986;6.014;2022-12-18T15:46:26;-1.40;99.90
56162;DHT22;42045;52.986;6.014;2022-12-18T15:48:56;-1.40;99.90
56162;DHT22;42045;52.986;6.014;2022-12-18T15:51:29;-1.30;99.90
56162;DHT22;42045;52.986;6.014;2022-12-18T15:53:58;-1.30;99.90
56162;DHT22;42045;52.986;6.014;2022-12-18T15:56:24;-1.30;99.90
56162;DHT22;42045;52.986;6.014;2022-12-18T15:59:15;-1.30;99.90
56162;DHT22;42045;52.986;6.014;2022-12-18T16:01:42;-1.20;99.90
56162;DHT22;42045;52.986;6.014;2022-12-18T16:04:16;-1.20;99.90
56162;DHT22;42045;52.986;6.014;2022-12-18T16:06:43;-1.20;99.90
56162;DHT22;42045;52.986;6.014;2022-12-18T16:09:09;-1.20;99.90
56162;DHT22;42045;52.986;6.014;2022-12-18T16:11:36;-1.20;99.90
56162;DHT22;42045;52.986;6.014;2022-12-18T16:16:44;-1.20;99.90
56162;DHT22;42045;52.986;6.014;2022-12-18T16:19:10;-1.20;99.90
56162;DHT22;42045;52.986;6.014;2022-12-18T16:21:36;-1.20;99.90
56162;DHT22;42045;52.986;6.014;2022-12-18T16:24:02;-1.20;99.90
56162;DHT22;42045;52.986;6.014;2022-12-18T16:26:27;-1.20;99.90
56162;DHT22;42045;52.986;6.014;2022-12-18T16:28:53;-1.20;99.90
56162;DHT22;42045;52.986;6.014;2022-12-18T16:31:19;-1.20;99.90
56162;DHT22;42045;52.986;6.014;2022-12-18T16:33:46;-1.20;99.90
56162;DHT22;42045;52.986;6.014;2022-12-18T16:36:11;-1.20;99.90
56162;DHT22;42045;52.986;6.014;2022-12-18T16:38:37;-1.20;99.90
56162;DHT22;42045;52.986;6.014;2022-12-18T16:41:18;-1.10;99.90
56162;DHT22;42045;52.986;6.014;2022-12-18T16:43:56;-1.10;99.90
56162;DHT22;42045;52.986;6.014;2022-12-18T16:46:22;-1.10;99.90
56162;DHT22;42045;52.986;6.014;2022-12-18T16:48:48;-1.10;99.90
56162;DHT22;42045;52.986;6.014;2022-12-18T16:51:13;-1.10;99.90
56162;DHT22;42045;52.986;6.014;2022-12-18T16:53:39;-1.10;99.90
56162;DHT22;42045;52.986;6.014;2022-12-18T16:56:05;-1.10;99.90
56162;DHT22;42045;52.986;6.014;2022-12-18T16:58:31;-1.10;99.90
56162;DHT22;42045;52.986;6.014;2022-12-18T17:00:57;-1.10;99.90
56162;DHT22;42045;52.986;6.014;2022-12-18T17:03:23;-1.00;99.90
56162;DHT22;42045;52.986;6.014;2022-12-18T17:05:48;-1.00;99.90
56162;DHT22;42045;52.986;6.014;2022-12-18T17:08:14;-1.00;99.90
56162;DHT22;42045;52.986;6.014;2022-12-18T17:10:39;-1.00;99.90
56162;DHT22;42045;52.986;6.014;2022-12-18T17:13:05;-1.00;99.90
56162;DHT22;42045;52.986;6.014;2022-12-18T17:15:34;-1.00;99.90
56162;DHT22;42045;52.986;6.014;2022-12-18T17:18:01;-1.00;99.90
56162;DHT22;42045;52.986;6.014;2022-12-18T17:20:27;-1.00;99.90
56162;DHT22;42045;52.986;6.014;2022-12-18T17:22:52;-1.00;99.90
56162;DHT22;42045;52.986;6.014;2022-12-18T17:25:18;-1.00;99.90
56162;DHT22;42045;52.986;6.014;2022-12-18T17:27:44;-1.00;99.90
56162;DHT22;42045;52.986;6.014;2022-12-18T17:30:10;-1.00;99.90
56162;DHT22;42045;52.986;6.014;2022-12-18T17:32:35;-1.00;99.90
56162;DHT22;42045;52.986;6.014;2022-12-18T17:35:01;-1.00;99.90
56162;DHT22;42045;52.986;6.014;2022-12-18T17:37:27;-0.90;99.90
56162;DHT22;42045;52.986;6.014;2022-12-18T17:39:53;-0.90;99.90
56162;DHT22;42045;52.986;6.014;2022-12-18T17:42:18;-0.90;99.90